Time;durP1;ratioP1;P1;durP2;ratioP2;P2;SDS_P1;SDS_P2;PMS_P1;PMS_P2;Temp;Humidity;BMP_temperature;BMP_pressure;BME280_temperature;BME280_humidity;BME280_pressure;Samples;Min_cycle;Max_cycle;Signal;HPM_P1;HPM_P2
2022/05/11 00:02:24;;;;;;;16.73;15.17;;;;;;;;;;6149888;28;20227;-68
2022/05/11 00:05:45;;;;;;;16.33;14.83;;;;;;;;;;6148675;28;20238;-68
2022/05/11 00:09:06;;;;;;;16.23;14.83;;;;;;;;;;6151944;28;20238;-68
2022/05/11 00:12:26;;;;;;;17.40;15.77;;;;;;;;;;6145471;28;20252;-70
2022/05/11 00:15:49;;;;;;;16.13;14.43;;;;;;;;;;6148878;28;20234;-68
2022/05/11 00:19:09;;;;;;;17.97;16.17;;;;;;;;;;6150769;28;20234;-67
2022/05/11 00:22:30;;;;;;;18.60;15.37;;;;;;;;;;6157205;28;20222;-65
2022/05/11 00:25:51;;;;;;;16.90;15.23;;;;;;;;;;6151403;28;20313;-68
2022/05/11 00:29:11;;;;;;;15.47;13.40;;;;;;;;;;6146862;28;20234;-65
2022/05/11 00:32:33;;;;;;;18.03;16.33;;;;;;;;;;6140328;28;20231;-67
2022/05/11 00:35:54;;;;;;;17.37;15.63;;;;;;;;;;6152706;28;20615;-68
2022/05/11 00:39:14;;;;;;;18.07;16.27;;;;;;;;;;6141275;28;20254;-66
2022/05/11 00:42:35;;;;;;;18.30;16.43;;;;;;;;;;6149651;28;20254;-67
2022/05/11 00:46:02;;;;;;;17.43;15.53;;;;;;;;;;6150314;28;20239;-67
2022/05/11 00:49:35;;;;;;;15.63;14.03;;;;;;;;;;6153504;28;20621;-66
2022/05/11 00:52:57;;;;;;;16.90;15.30;;;;;;;;;;6144937;28;20230;-67
2022/05/11 00:56:18;;;;;;;16.63;15.27;;;;;;;;;;6148203;28;20247;-66
2022/05/11 00:59:41;;;;;;;17.10;15.53;;;;;;;;;;6149954;28;20254;-67
2022/05/11 01:03:04;;;;;;;16.90;15.40;;;;;;;;;;6146556;28;20235;-67
2022/05/11 01:06:26;;;;;;;18.27;16.67;;;;;;;;;;6140872;28;20258;-66
2022/05/11 01:09:47;;;;;;;16.93;15.33;;;;;;;;;;6145189;28;20226;-68
2022/05/11 01:13:09;;;;;;;17.73;16.23;;;;;;;;;;6153210;28;20238;-68
2022/05/11 01:16:29;;;;;;;18.30;16.20;;;;;;;;;;6148595;28;20675;-67
2022/05/11 01:19:50;;;;;;;18.17;16.30;;;;;;;;;;6148042;28;20230;-67
2022/05/11 01:23:17;;;;;;;16.00;13.83;;;;;;;;;;6144985;28;20321;-67
2022/05/11 01:26:38;;;;;;;15.47;14.10;;;;;;;;;;6153840;28;20239;-67
2022/05/11 01:30:00;;;;;;;17.03;15.43;;;;;;;;;;6146272;28;20916;-67
2022/05/11 01:33:22;;;;;;;18.33;16.30;;;;;;;;;;6144328;28;20251;-68
2022/05/11 01:36:43;;;;;;;16.83;15.20;;;;;;;;;;6150578;28;20384;-67
2022/05/11 01:40:04;;;;;;;17.27;15.40;;;;;;;;;;6148963;28;23333;-67
2022/05/11 01:43:27;;;;;;;16.20;14.60;;;;;;;;;;6149468;28;20230;-68
2022/05/11 01:46:49;;;;;;;16.53;14.93;;;;;;;;;;6148902;28;20611;-68
2022/05/11 01:50:09;;;;;;;16.13;14.50;;;;;;;;;;6152045;28;20655;-67
2022/05/11 01:53:30;;;;;;;14.43;13.13;;;;;;;;;;6148075;28;20239;-67
2022/05/11 01:56:51;;;;;;;15.30;14.00;;;;;;;;;;6155326;28;20238;-67
2022/05/11 02:00:13;;;;;;;14.57;13.27;;;;;;;;;;6155153;28;20243;-69
2022/05/11 02:03:34;;;;;;;13.60;12.30;;;;;;;;;;6150640;28;21719;-67
2022/05/11 02:10:32;;;;;;;14.20;13.00;;;;;;;;;;6164438;28;20226;-66
2022/05/11 02:13:53;;;;;;;14.57;13.07;;;;;;;;;;6151814;28;20666;-67
2022/05/11 02:17:15;;;;;;;14.07;12.80;;;;;;;;;;6157029;28;20679;-67
2022/05/11 02:20:35;;;;;;;14.70;12.47;;;;;;;;;;6153276;28;20651;-68
2022/05/11 02:23:56;;;;;;;14.33;13.10;;;;;;;;;;6145754;28;20230;-68
2022/05/11 02:27:16;;;;;;;14.33;12.90;;;;;;;;;;6146432;28;20365;-68
2022/05/11 02:30:37;;;;;;;15.03;13.70;;;;;;;;;;6137052;28;20239;-67
2022/05/11 02:34:02;;;;;;;13.50;12.17;;;;;;;;;;6146564;28;20227;-69
2022/05/11 02:37:23;;;;;;;12.87;11.73;;;;;;;;;;6145545;28;20223;-67
2022/05/11 02:40:46;;;;;;;14.33;12.93;;;;;;;;;;6151527;28;20222;-67
2022/05/11 02:44:07;;;;;;;13.10;11.90;;;;;;;;;;6149907;28;20612;-67
2022/05/11 02:47:27;;;;;;;15.17;13.77;;;;;;;;;;6148700;28;20568;-67
2022/05/11 02:50:50;;;;;;;13.93;12.53;;;;;;;;;;6153700;28;20230;-67
2022/05/11 02:54:11;;;;;;;13.13;12.00;;;;;;;;;;6147997;28;20564;-68
2022/05/11 02:57:32;;;;;;;14.70;13.30;;;;;;;;;;6148089;28;20231;-67
2022/05/11 03:00:53;;;;;;;13.93;12.63;;;;;;;;;;6145964;28;20235;-66
2022/05/11 03:04:14;;;;;;;15.37;13.80;;;;;;;;;;6153949;28;20223;-68
2022/05/11 03:07:36;;;;;;;13.60;12.20;;;;;;;;;;6150840;28;20228;-67
2022/05/11 03:10:57;;;;;;;13.47;12.27;;;;;;;;;;6151777;28;20226;-67
2022/05/11 03:14:17;;;;;;;14.73;13.43;;;;;;;;;;6148809;28;20239;-68
2022/05/11 03:17:38;;;;;;;13.53;12.17;;;;;;;;;;6149575;28;20502;-67
2022/05/11 03:20:59;;;;;;;13.37;12.10;;;;;;;;;;6151250;28;20305;-66
2022/05/11 03:24:21;;;;;;;12.53;11.33;;;;;;;;;;6151680;28;20251;-67
2022/05/11 03:27:41;;;;;;;25.60;22.97;;;;;;;;;;6145927;28;20694;-68
2022/05/11 03:31:02;;;;;;;15.00;13.80;;;;;;;;;;6145395;28;20261;-69
2022/05/11 03:34:37;;;;;;;15.40;13.93;;;;;;;;;;6149414;28;20224;-66
2022/05/11 03:37:57;;;;;;;19.87;18.17;;;;;;;;;;6152590;28;20225;-67
2022/05/11 03:41:19;;;;;;;22.47;20.47;;;;;;;;;;6148839;28;20423;-68
2022/05/11 03:44:40;;;;;;;22.27;20.23;;;;;;;;;;6146305;28;20239;-69
2022/05/11 03:48:00;;;;;;;18.20;16.47;;;;;;;;;;6152687;28;20231;-68
2022/05/11 03:51:23;;;;;;;15.37;13.97;;;;;;;;;;6156327;28;20226;-66
2022/05/11 03:54:45;;;;;;;15.03;13.57;;;;;;;;;;6156064;28;20609;-68
2022/05/11 03:58:07;;;;;;;14.47;13.17;;;;;;;;;;6156134;28;20238;-67
2022/05/11 04:01:28;;;;;;;18.20;16.33;;;;;;;;;;6156760;28;20262;-67
2022/05/11 04:04:48;;;;;;;17.77;16.17;;;;;;;;;;6158782;28;20226;-68
2022/05/11 04:08:09;;;;;;;30.70;28.13;;;;;;;;;;6146019;28;20243;-68
2022/05/11 04:11:30;;;;;;;16.43;15.03;;;;;;;;;;6146852;28;20250;-68
2022/05/11 04:14:52;;;;;;;19.20;17.60;;;;;;;;;;6157659;28;20909;-68
2022/05/11 04:18:12;;;;;;;15.10;13.60;;;;;;;;;;6145099;28;20223;-67
2022/05/11 04:21:33;;;;;;;14.30;13.03;;;;;;;;;;6147075;28;20222;-68
2022/05/11 04:24:53;;;;;;;14.97;13.70;;;;;;;;;;6151251;28;20266;-67
2022/05/11 04:28:14;;;;;;;17.40;15.80;;;;;;;;;;6151354;28;20238;-68
2022/05/11 04:31:36;;;;;;;15.27;13.77;;;;;;;;;;6154030;28;20230;-67
2022/05/11 04:34:56;;;;;;;14.37;12.90;;;;;;;;;;6148965;28;20222;-69
2022/05/11 04:38:17;;;;;;;13.77;12.50;;;;;;;;;;6150940;28;20242;-68
2022/05/11 04:41:37;;;;;;;13.50;12.30;;;;;;;;;;6145016;28;20365;-67
2022/05/11 04:44:58;;;;;;;15.17;13.90;;;;;;;;;;6149432;28;20238;-68
2022/05/11 04:48:19;;;;;;;14.63;13.33;;;;;;;;;;6151687;28;20230;-69
2022/05/11 04:51:40;;;;;;;13.53;12.33;;;;;;;;;;6146577;28;20276;-67
2022/05/11 04:55:00;;;;;;;14.57;13.23;;;;;;;;;;6152537;28;20245;-68
2022/05/11 04:58:21;;;;;;;15.37;14.03;;;;;;;;;;6152894;28;20234;-68
2022/05/11 05:01:42;;;;;;;14.20;12.83;;;;;;;;;;6147311;28;20699;-67
2022/05/11 05:05:05;;;;;;;16.10;14.60;;;;;;;;;;6151252;28;20234;-67
2022/05/11 05:08:25;;;;;;;15.20;13.83;;;;;;;;;;6147352;28;20508;-67
2022/05/11 05:11:46;;;;;;;15.17;13.87;;;;;;;;;;6144476;28;20612;-67
2022/05/11 05:15:07;;;;;;;16.20;14.70;;;;;;;;;;6149031;28;20238;-65
2022/05/11 05:18:28;;;;;;;16.03;14.63;;;;;;;;;;6146453;28;20613;-67
2022/05/11 05:21:50;;;;;;;16.03;14.63;;;;;;;;;;6156359;28;20309;-67
2022/05/11 05:25:11;;;;;;;16.60;15.00;;;;;;;;;;6155880;28;20231;-66
2022/05/11 05:32:10;;;;;;;12.43;11.33;;;;;;;;;;6140742;28;20235;-68
2022/05/11 05:35:31;;;;;;;16.90;13.43;;;;;;;;;;6138617;28;20231;-68
2022/05/11 05:38:53;;;;;;;15.73;14.17;;;;;;;;;;6144102;28;20667;-67
2022/05/11 05:42:17;;;;;;;15.37;13.33;;;;;;;;;;6136257;28;20247;-69
2022/05/11 05:45:38;;;;;;;15.37;13.80;;;;;;;;;;6149003;28;20238;-68
2022/05/11 05:48:58;;;;;;;14.50;13.20;;;;;;;;;;6145760;28;20239;-69
2022/05/11 05:52:20;;;;;;;14.03;12.90;;;;;;;;;;6148572;28;20251;-68
2022/05/11 05:55:42;;;;;;;12.37;11.07;;;;;;;;;;6150454;28;20314;-68
2022/05/11 05:59:09;;;;;;;14.43;13.17;;;;;;;;;;6146222;28;20597;-68
2022/05/11 06:02:29;;;;;;;15.80;14.27;;;;;;;;;;6149090;28;20227;-68
2022/05/11 06:05:50;;;;;;;14.67;13.33;;;;;;;;;;6156082;28;20619;-68
2022/05/11 06:09:10;;;;;;;15.13;13.77;;;;;;;;;;6159296;28;20250;-69
2022/05/11 06:12:32;;;;;;;15.53;14.00;;;;;;;;;;6153448;28;20233;-68
2022/05/11 06:15:54;;;;;;;15.13;13.70;;;;;;;;;;6154311;28;20235;-67
2022/05/11 06:19:15;;;;;;;15.73;14.17;;;;;;;;;;6149814;28;20223;-68
2022/05/11 06:22:35;;;;;;;14.50;13.20;;;;;;;;;;6151568;28;20758;-68
2022/05/11 06:25:56;;;;;;;16.90;15.37;;;;;;;;;;6143302;28;20235;-69
2022/05/11 06:29:17;;;;;;;16.27;14.83;;;;;;;;;;6147156;28;20804;-68
2022/05/11 06:32:38;;;;;;;17.70;15.80;;;;;;;;;;6144341;28;20234;-67
2022/05/11 06:35:58;;;;;;;16.70;14.70;;;;;;;;;;6154450;28;20515;-68
2022/05/11 06:39:19;;;;;;;16.93;15.07;;;;;;;;;;6154709;28;20310;-68
2022/05/11 06:42:39;;;;;;;16.13;14.60;;;;;;;;;;6151192;28;20230;-68
2022/05/11 06:46:01;;;;;;;18.37;16.47;;;;;;;;;;6156012;28;20243;-67
2022/05/11 06:49:22;;;;;;;16.30;14.57;;;;;;;;;;6154593;28;20243;-68
2022/05/11 06:52:42;;;;;;;20.87;15.17;;;;;;;;;;6149393;28;20255;-66
2022/05/11 06:59:41;;;;;;;15.73;13.97;;;;;;;;;;6148910;28;20245;-68
2022/05/11 07:03:04;;;;;;;15.23;13.77;;;;;;;;;;6143567;28;20231;-68
2022/05/11 07:06:25;;;;;;;17.83;15.93;;;;;;;;;;6152407;28;20257;-67
2022/05/11 07:09:46;;;;;;;15.27;13.67;;;;;;;;;;6156306;28;20623;-68
2022/05/11 07:13:06;;;;;;;14.97;13.03;;;;;;;;;;6152950;28;20230;-67
2022/05/11 07:16:28;;;;;;;14.70;13.30;;;;;;;;;;6150083;28;20231;-67
2022/05/11 07:19:49;;;;;;;17.37;13.73;;;;;;;;;;6152844;28;20237;-67
2022/05/11 07:23:10;;;;;;;15.97;14.27;;;;;;;;;;6148825;28;20239;-66
2022/05/11 07:26:30;;;;;;;18.87;12.20;;;;;;;;;;6155618;28;20245;-68
2022/05/11 07:29:51;;;;;;;14.37;12.23;;;;;;;;;;6148516;28;20266;-69
2022/05/11 07:33:12;;;;;;;13.77;12.57;;;;;;;;;;6150880;28;20238;-67
2022/05/11 07:36:34;;;;;;;15.27;11.97;;;;;;;;;;6148579;28;20601;-68
2022/05/11 07:39:56;;;;;;;14.07;12.63;;;;;;;;;;6152585;28;20223;-69
2022/05/11 07:43:16;;;;;;;17.80;12.50;;;;;;;;;;6150315;28;20231;-69
2022/05/11 07:46:37;;;;;;;11.83;10.60;;;;;;;;;;6136308;28;20263;-68
2022/05/11 07:49:57;;;;;;;11.37;10.27;;;;;;;;;;6156801;28;20550;-68
2022/05/11 07:53:19;;;;;;;13.03;11.80;;;;;;;;;;6149040;28;20235;-69
2022/05/11 08:00:18;;;;;;;10.23;9.17;;;;;;;;;;6153125;28;20226;-67
2022/05/11 08:03:38;;;;;;;10.00;9.00;;;;;;;;;;6148364;28;20245;-66
2022/05/11 08:06:59;;;;;;;14.33;9.50;;;;;;;;;;6148139;28;20234;-67
2022/05/11 08:10:22;;;;;;;15.17;9.80;;;;;;;;;;6147258;28;20235;-67
2022/05/11 08:13:43;;;;;;;10.03;8.77;;;;;;;;;;6149865;28;20239;-68
2022/05/11 08:17:03;;;;;;;11.40;8.77;;;;;;;;;;6148237;28;20235;-67
2022/05/11 08:20:25;;;;;;;9.70;8.80;;;;;;;;;;6160231;28;20230;-68
2022/05/11 08:23:47;;;;;;;8.83;7.93;;;;;;;;;;6166736;28;20333;-68
2022/05/11 08:27:10;;;;;;;9.03;7.57;;;;;;;;;;6151760;28;20326;-68
2022/05/11 08:34:11;;;;;;;12.93;9.47;;;;;;;;;;6202660;28;20324;-68
2022/05/11 08:37:32;;;;;;;8.97;8.07;;;;;;;;;;6205952;28;20488;-68
2022/05/11 08:40:56;;;;;;;13.27;9.50;;;;;;;;;;6196962;28;20237;-67
2022/05/11 08:44:19;;;;;;;10.57;8.63;;;;;;;;;;6198549;28;20230;-68
2022/05/11 08:47:43;;;;;;;9.37;8.53;;;;;;;;;;6195246;28;20245;-69
2022/05/11 08:51:06;;;;;;;10.70;9.40;;;;;;;;;;6209003;28;20240;-68
2022/05/11 08:54:32;;;;;;;9.37;8.57;;;;;;;;;;6198160;28;20599;-68
2022/05/11 08:57:53;;;;;;;9.77;8.17;;;;;;;;;;6196235;28;20245;-67
2022/05/11 09:01:18;;;;;;;11.57;8.67;;;;;;;;;;6198358;28;20233;-69
2022/05/11 09:04:41;;;;;;;11.13;10.20;;;;;;;;;;6206888;28;20602;-68
2022/05/11 09:08:04;;;;;;;12.17;9.40;;;;;;;;;;6201072;28;20342;-69
2022/05/11 09:11:27;;;;;;;9.53;8.53;;;;;;;;;;6208581;28;20229;-68
2022/05/11 09:14:50;;;;;;;9.37;8.43;;;;;;;;;;6212608;28;20626;-68
2022/05/11 09:18:13;;;;;;;8.30;7.50;;;;;;;;;;6206935;28;20592;-69
2022/05/11 09:21:37;;;;;;;8.77;7.77;;;;;;;;;;6212838;28;20269;-68
2022/05/11 09:24:59;;;;;;;8.43;7.70;;;;;;;;;;6211546;28;20308;-69
2022/05/11 09:28:21;;;;;;;9.37;7.43;;;;;;;;;;6209962;28;20234;-68
2022/05/11 09:31:41;;;;;;;8.50;7.70;;;;;;;;;;6209205;28;20264;-69
2022/05/11 09:35:20;;;;;;;11.20;8.13;;;;;;;;;;6209053;28;20226;-69
2022/05/11 09:38:42;;;;;;;10.82;7.72;;;;;;;;;;6208007;28;20237;-69
2022/05/11 09:42:13;;;;;;;15.68;8.30;;;;;;;;;;6206847;28;20229;-69
2022/05/11 09:45:44;;;;;;;8.95;7.15;;;;;;;;;;6210045;28;20240;-69
2022/05/11 09:49:05;;;;;;;8.07;6.40;;;;;;;;;;6200966;28;20221;-68
2022/05/11 09:52:35;;;;;;;8.70;6.75;;;;;;;;;;6200676;28;20315;-68
2022/05/11 09:55:55;;;;;;;6.80;6.20;;;;;;;;;;6207319;28;20256;-68
2022/05/11 09:59:17;;;;;;;7.45;6.75;;;;;;;;;;6206878;28;20225;-68
2022/05/11 10:02:39;;;;;;;7.80;6.88;;;;;;;;;;6206325;28;20229;-68
2022/05/11 10:06:00;;;;;;;7.75;7.00;;;;;;;;;;6205163;28;21636;-68
2022/05/11 10:09:26;;;;;;;7.07;6.45;;;;;;;;;;6207568;28;20325;-68
2022/05/11 10:12:48;;;;;;;6.70;5.90;;;;;;;;;;6207472;28;20289;-67
2022/05/11 10:23:31;;;;;;;7.88;5.82;;;;;;;;;;6207460;28;20218;-68
2022/05/11 10:26:58;;;;;;;6.63;6.05;;;;;;;;;;6212117;28;20229;-68
2022/05/11 10:30:21;;;;;;;7.20;6.22;;;;;;;;;;6205905;28;20316;-68
2022/05/11 10:33:53;;;;;;;7.82;6.90;;;;;;;;;;6207724;28;21016;-68
2022/05/11 10:37:16;;;;;;;8.30;7.00;;;;;;;;;;6209564;28;20236;-69
2022/05/11 10:40:42;;;;;;;7.45;6.43;;;;;;;;;;6199415;28;20229;-69
2022/05/11 10:44:12;;;;;;;6.90;6.28;;;;;;;;;;6203964;28;20609;-68
2022/05/11 10:47:41;;;;;;;9.50;5.93;;;;;;;;;;6201686;28;20642;-67
2022/05/11 10:51:05;;;;;;;8.48;6.00;;;;;;;;;;6201418;28;20243;-67
2022/05/11 10:54:29;;;;;;;8.52;6.57;;;;;;;;;;6201145;28;20233;-69
2022/05/11 10:57:55;;;;;;;8.15;5.97;;;;;;;;;;6206464;28;20233;-67
2022/05/11 11:01:17;;;;;;;7.85;6.10;;;;;;;;;;6206129;28;20236;-68
2022/05/11 11:04:50;;;;;;;8.18;7.43;;;;;;;;;;6204233;28;20238;-67
2022/05/11 11:08:14;;;;;;;7.32;6.53;;;;;;;;;;6205590;28;20233;-67
2022/05/11 11:11:39;;;;;;;9.90;6.60;;;;;;;;;;6210035;28;20449;-67
2022/05/11 11:14:59;;;;;;;7.45;6.82;;;;;;;;;;6206014;28;20225;-67
2022/05/11 11:18:23;;;;;;;8.70;7.13;;;;;;;;;;6205322;28;20225;-66
2022/05/11 11:21:44;;;;;;;6.93;6.32;;;;;;;;;;6203105;28;20233;-67
2022/05/11 11:25:20;;;;;;;7.72;7.00;;;;;;;;;;6208845;28;20320;-68
2022/05/11 11:29:00;;;;;;;7.15;6.55;;;;;;;;;;6206231;28;20256;-68
2022/05/11 11:32:21;;;;;;;7.53;6.82;;;;;;;;;;6206822;28;20225;-67
2022/05/11 11:35:44;;;;;;;8.57;7.25;;;;;;;;;;6210771;28;20594;-67
2022/05/11 11:39:05;;;;;;;8.77;6.82;;;;;;;;;;6202488;28;20327;-66
2022/05/11 11:42:36;;;;;;;7.10;5.60;;;;;;;;;;6200226;28;20232;-67
2022/05/11 11:46:03;;;;;;;7.80;7.10;;;;;;;;;;6202121;28;20610;-68
2022/05/11 11:49:39;;;;;;;12.45;7.65;;;;;;;;;;6204394;28;20229;-67
2022/05/11 11:53:10;;;;;;;6.35;5.72;;;;;;;;;;6205784;28;20712;-68
2022/05/11 11:56:35;;;;;;;7.60;6.90;;;;;;;;;;6207699;28;20240;-67
2022/05/11 11:59:58;;;;;;;7.15;6.45;;;;;;;;;;6204212;28;20266;-67
2022/05/11 12:03:22;;;;;;;7.70;6.40;;;;;;;;;;6208811;28;20250;-68
2022/05/11 12:17:42;;;;;;;9.18;6.82;;;;;;;;;;6199022;28;20233;-67
2022/05/11 12:21:03;;;;;;;8.05;5.53;;;;;;;;;;6199842;28;20712;-67
2022/05/11 12:24:27;;;;;;;7.50;5.78;;;;;;;;;;6204051;28;22085;-66
2022/05/11 12:27:50;;;;;;;5.60;5.20;;;;;;;;;;6198487;28;20462;-66
2022/05/11 12:31:22;;;;;;;9.75;7.32;;;;;;;;;;6200169;28;20233;-67
2022/05/11 12:34:44;;;;;;;10.07;6.32;;;;;;;;;;6201944;28;20225;-67
2022/05/11 12:38:06;;;;;;;6.68;5.15;;;;;;;;;;6210387;28;20490;-66
2022/05/11 12:41:27;;;;;;;5.65;5.15;;;;;;;;;;6195074;28;20798;-66
2022/05/11 12:44:49;;;;;;;6.25;5.07;;;;;;;;;;6201936;28;20264;-67
2022/05/11 12:48:10;;;;;;;6.55;5.35;;;;;;;;;;6199797;28;20611;-66
2022/05/11 12:51:31;;;;;;;5.10;4.38;;;;;;;;;;6206372;28;20233;-66
2022/05/11 12:54:56;;;;;;;5.35;4.60;;;;;;;;;;6197668;28;20530;-67
2022/05/11 12:58:16;;;;;;;5.88;4.45;;;;;;;;;;6202676;28;20233;-67
2022/05/11 13:01:38;;;;;;;7.45;5.43;;;;;;;;;;6200057;28;20512;-68
2022/05/11 13:05:00;;;;;;;6.28;4.38;;;;;;;;;;6205323;28;20233;-68
2022/05/11 13:08:21;;;;;;;7.03;4.28;;;;;;;;;;6202064;28;20237;-69
2022/05/11 13:11:41;;;;;;;5.53;4.03;;;;;;;;;;6201013;28;20244;-68
2022/05/11 13:15:02;;;;;;;5.15;3.95;;;;;;;;;;6205404;28;20630;-68
2022/05/11 13:18:27;;;;;;;4.43;3.97;;;;;;;;;;6206906;28;20229;-69
2022/05/11 13:21:48;;;;;;;6.50;3.70;;;;;;;;;;6199769;28;20237;-67
2022/05/11 13:25:09;;;;;;;5.53;4.35;;;;;;;;;;6190207;28;20268;-69
2022/05/11 13:28:31;;;;;;;5.00;2.92;;;;;;;;;;6206828;28;20832;-67
2022/05/11 13:32:03;;;;;;;4.13;3.30;;;;;;;;;;6205834;28;20273;-68
2022/05/11 13:35:27;;;;;;;4.00;2.95;;;;;;;;;;6206304;28;20241;-69
2022/05/11 13:38:49;;;;;;;4.95;3.88;;;;;;;;;;6207409;28;20253;-68
2022/05/11 13:42:16;;;;;;;5.10;3.90;;;;;;;;;;6208088;28;20257;-68
2022/05/11 13:45:36;;;;;;;3.60;3.10;;;;;;;;;;6205637;28;20313;-68
2022/05/11 13:49:12;;;;;;;4.15;3.00;;;;;;;;;;6213242;28;20230;-68
2022/05/11 13:52:35;;;;;;;4.25;3.85;;;;;;;;;;6207900;28;20621;-67
2022/05/11 13:56:04;;;;;;;4.55;2.90;;;;;;;;;;6209515;28;20237;-67
2022/05/11 13:59:25;;;;;;;3.50;3.08;;;;;;;;;;6211747;28;20221;-68
2022/05/11 14:02:50;;;;;;;2.85;2.65;;;;;;;;;;6205853;28;20237;-68
2022/05/11 14:06:12;;;;;;;4.35;2.95;;;;;;;;;;6209442;28;20379;-69
2022/05/11 14:09:35;;;;;;;6.13;3.03;;;;;;;;;;6209399;28;20510;-67
2022/05/11 14:12:56;;;;;;;4.75;3.13;;;;;;;;;;6196603;28;20225;-68
2022/05/11 14:16:19;;;;;;;6.55;3.03;;;;;;;;;;6205800;28;20237;-68
2022/05/11 14:19:40;;;;;;;4.43;2.72;;;;;;;;;;6210688;28;20229;-68
2022/05/11 14:23:01;;;;;;;5.15;2.78;;;;;;;;;;6206151;28;20225;-68
2022/05/11 14:26:23;;;;;;;5.30;2.80;;;;;;;;;;6204428;28;20225;-68
2022/05/11 14:29:46;;;;;;;6.50;3.22;;;;;;;;;;6214090;28;20327;-68
2022/05/11 14:33:07;;;;;;;6.05;2.80;;;;;;;;;;6199757;28;20260;-68
2022/05/11 14:36:28;;;;;;;5.95;3.85;;;;;;;;;;6210531;28;20225;-68
2022/05/11 14:39:48;;;;;;;4.07;2.60;;;;;;;;;;6202013;28;20237;-68
2022/05/11 14:43:10;;;;;;;3.22;2.70;;;;;;;;;;6203771;28;20233;-67
2022/05/11 14:46:31;;;;;;;3.92;2.70;;;;;;;;;;6205648;28;20229;-68
2022/05/11 14:49:52;;;;;;;5.43;3.70;;;;;;;;;;6215554;28;20236;-68
2022/05/11 14:53:12;;;;;;;4.25;3.30;;;;;;;;;;6196482;28;20241;-69
2022/05/11 14:56:34;;;;;;;7.07;2.40;;;;;;;;;;6198997;28;20520;-70
2022/05/11 15:03:34;;;;;;;4.45;2.65;;;;;;;;;;6209367;28;20233;-67
2022/05/11 15:06:55;;;;;;;2.03;1.90;;;;;;;;;;6210044;28;20669;-69
2022/05/11 15:10:16;;;;;;;3.22;2.25;;;;;;;;;;6202205;28;20575;-69
2022/05/11 15:13:37;;;;;;;7.03;2.45;;;;;;;;;;6208097;28;20610;-68
2022/05/11 15:17:00;;;;;;;8.38;3.28;;;;;;;;;;6198020;28;20221;-68
2022/05/11 15:20:21;;;;;;;3.63;2.35;;;;;;;;;;6207307;28;20320;-69
2022/05/11 15:23:42;;;;;;;5.30;2.63;;;;;;;;;;6208911;28;20229;-69
2022/05/11 15:27:03;;;;;;;7.13;2.22;;;;;;;;;;6197296;28;20682;-69
2022/05/11 15:30:25;;;;;;;4.85;2.55;;;;;;;;;;6209261;28;20229;-70
2022/05/11 15:33:47;;;;;;;5.45;2.20;;;;;;;;;;6208987;28;20222;-70
2022/05/11 15:37:08;;;;;;;4.25;1.88;;;;;;;;;;6198846;28;20348;-70
2022/05/11 15:40:29;;;;;;;7.20;2.05;;;;;;;;;;6207329;28;20501;-70
2022/05/11 15:43:50;;;;;;;4.47;2.58;;;;;;;;;;6192810;28;20514;-70
2022/05/11 15:47:10;;;;;;;5.55;2.28;;;;;;;;;;6197694;28;20233;-70
2022/05/11 15:50:33;;;;;;;7.47;2.70;;;;;;;;;;6200164;28;20288;-70
2022/05/11 15:53:53;;;;;;;5.35;2.22;;;;;;;;;;6201144;28;20237;-70
2022/05/11 15:57:14;;;;;;;4.15;2.03;;;;;;;;;;6205545;28;20260;-69
2022/05/11 16:00:35;;;;;;;3.58;1.88;;;;;;;;;;6199931;28;20593;-69
2022/05/11 16:03:56;;;;;;;5.78;1.65;;;;;;;;;;6199730;28;20233;-70
2022/05/11 16:07:18;;;;;;;4.55;2.38;;;;;;;;;;6198673;28;20538;-69
2022/05/11 16:10:38;;;;;;;3.88;1.40;;;;;;;;;;6196293;28;20234;-70
2022/05/11 16:14:00;;;;;;;8.80;2.40;;;;;;;;;;6202464;28;20237;-70
2022/05/11 16:20:58;;;;;;;7.15;3.65;;;;;;;;;;6193236;28;20229;-70
2022/05/11 16:24:20;;;;;;;5.70;3.30;;;;;;;;;;6192985;28;20276;-68
2022/05/11 16:27:40;;;;;;;6.43;5.75;;;;;;;;;;6192338;28;20229;-71
2022/05/11 16:31:01;;;;;;;7.97;6.90;;;;;;;;;;6197747;28;20260;-69
2022/05/11 16:34:23;;;;;;;8.95;2.90;;;;;;;;;;6203640;28;20228;-69
2022/05/11 16:37:43;;;;;;;5.82;3.00;;;;;;;;;;6211496;28;20226;-69
2022/05/11 16:41:05;;;;;;;6.53;2.75;;;;;;;;;;6208160;28;20622;-69
2022/05/11 16:44:33;;;;;;;12.88;4.07;;;;;;;;;;6207869;28;20236;-69
2022/05/11 16:47:54;;;;;;;6.53;3.40;;;;;;;;;;6205904;28;20323;-69
2022/05/11 16:51:15;;;;;;;10.18;5.45;;;;;;;;;;6202766;28;20253;-70
2022/05/11 16:54:36;;;;;;;9.07;4.13;;;;;;;;;;6208714;28;20237;-69
2022/05/11 16:57:58;;;;;;;6.20;2.65;;;;;;;;;;6190435;28;20652;-67
2022/05/11 17:01:18;;;;;;;6.20;3.28;;;;;;;;;;6197964;28;20666;-66
2022/05/11 17:04:39;;;;;;;7.80;3.47;;;;;;;;;;6204559;28;20224;-68
2022/05/11 17:07:59;;;;;;;8.70;3.53;;;;;;;;;;6205125;28;20229;-67
2022/05/11 17:11:20;;;;;;;7.78;3.33;;;;;;;;;;6198036;28;20333;-67
2022/05/11 17:14:42;;;;;;;9.13;3.65;;;;;;;;;;6213125;28;20229;-67
2022/05/11 17:18:03;;;;;;;7.30;3.42;;;;;;;;;;6204836;28;20233;-66
2022/05/11 17:21:25;;;;;;;6.88;3.35;;;;;;;;;;6207469;28;20256;-67
2022/05/11 17:24:45;;;;;;;7.03;3.80;;;;;;;;;;6201687;28;20338;-66
2022/05/11 17:28:05;;;;;;;7.45;2.95;;;;;;;;;;6192084;28;20652;-67
2022/05/11 17:31:27;;;;;;;8.05;2.90;;;;;;;;;;6205267;28;20245;-67
2022/05/11 17:34:48;;;;;;;7.30;3.03;;;;;;;;;;6198948;28;20936;-67
2022/05/11 17:38:09;;;;;;;7.55;2.53;;;;;;;;;;6201566;28;21295;-69
2022/05/11 17:41:29;;;;;;;6.60;3.28;;;;;;;;;;6197473;28;20337;-69
2022/05/11 17:44:50;;;;;;;8.63;3.30;;;;;;;;;;6202731;28;20232;-69
2022/05/11 17:48:13;;;;;;;9.85;3.83;;;;;;;;;;6205917;28;20626;-69
2022/05/11 17:51:35;;;;;;;8.55;3.00;;;;;;;;;;6208086;28;20242;-69
2022/05/11 17:54:56;;;;;;;7.90;3.80;;;;;;;;;;6206793;28;20343;-68
2022/05/11 17:58:17;;;;;;;8.55;4.43;;;;;;;;;;6203378;28;20694;-69
2022/05/11 18:01:38;;;;;;;8.93;3.83;;;;;;;;;;6203785;28;20229;-70
2022/05/11 18:05:00;;;;;;;11.50;3.13;;;;;;;;;;6200414;28;20237;-70
2022/05/11 18:08:21;;;;;;;6.10;3.17;;;;;;;;;;6207899;28;20761;-69
2022/05/11 18:11:42;;;;;;;9.75;4.18;;;;;;;;;;6199872;28;20581;-68
2022/05/11 18:15:03;;;;;;;10.15;3.35;;;;;;;;;;6204765;28;20234;-68
2022/05/11 18:18:24;;;;;;;10.20;3.13;;;;;;;;;;6198700;28;20221;-68
2022/05/11 18:21:46;;;;;;;9.00;3.83;;;;;;;;;;6208725;28;20513;-67
2022/05/11 18:25:08;;;;;;;8.88;3.08;;;;;;;;;;6203068;28;20531;-68
2022/05/11 18:28:29;;;;;;;10.05;3.63;;;;;;;;;;6204421;28;20238;-68
2022/05/11 18:31:50;;;;;;;9.53;3.70;;;;;;;;;;6204959;28;20740;-68
2022/05/11 18:35:12;;;;;;;7.38;3.00;;;;;;;;;;6210512;28;20597;-69
2022/05/11 18:38:33;;;;;;;8.43;3.30;;;;;;;;;;6210915;28;20316;-70
2022/05/11 18:41:54;;;;;;;6.30;2.45;;;;;;;;;;6207507;28;20232;-70
2022/05/11 18:45:15;;;;;;;5.68;2.85;;;;;;;;;;6206620;28;20236;-70
2022/05/11 18:48:36;;;;;;;19.13;3.80;;;;;;;;;;6208527;28;20234;-70
2022/05/11 18:51:57;;;;;;;7.65;2.83;;;;;;;;;;6205932;28;20323;-69
2022/05/11 18:55:19;;;;;;;6.22;2.55;;;;;;;;;;6206767;28;20237;-69
2022/05/11 18:58:40;;;;;;;5.95;2.65;;;;;;;;;;6198545;28;20233;-70
2022/05/11 19:02:00;;;;;;;9.20;3.33;;;;;;;;;;6208620;28;20241;-71
2022/05/11 19:05:23;;;;;;;6.72;2.90;;;;;;;;;;6201250;28;20273;-70
2022/05/11 19:08:43;;;;;;;6.65;3.45;;;;;;;;;;6204347;28;20307;-69
2022/05/11 19:12:05;;;;;;;6.50;2.55;;;;;;;;;;6206721;28;20233;-70
2022/05/11 19:15:26;;;;;;;3.95;2.13;;;;;;;;;;6207904;28;20225;-69
2022/05/11 19:18:46;;;;;;;6.85;2.60;;;;;;;;;;6206178;28;20229;-69
2022/05/11 19:22:07;;;;;;;6.32;2.90;;;;;;;;;;6204401;28;20241;-68
2022/05/11 19:25:28;;;;;;;5.63;2.10;;;;;;;;;;6204332;28;20229;-70
2022/05/11 19:28:50;;;;;;;5.45;2.88;;;;;;;;;;6209069;28;20319;-69
2022/05/11 19:32:11;;;;;;;7.32;3.47;;;;;;;;;;6203226;28;20497;-69
2022/05/11 19:35:32;;;;;;;5.22;2.53;;;;;;;;;;6206901;28;20802;-69
2022/05/11 19:38:53;;;;;;;5.85;2.67;;;;;;;;;;6206832;28;20229;-69
2022/05/11 19:42:14;;;;;;;6.05;3.17;;;;;;;;;;6216020;28;20237;-69
2022/05/11 19:45:36;;;;;;;6.53;3.28;;;;;;;;;;6202869;28;20594;-69
2022/05/11 19:48:57;;;;;;;7.03;3.15;;;;;;;;;;6203093;28;20376;-68
2022/05/11 19:52:18;;;;;;;5.05;2.97;;;;;;;;;;6203408;28;20698;-69
2022/05/11 19:55:39;;;;;;;9.57;2.83;;;;;;;;;;6204305;28;20229;-68
2022/05/11 19:59:01;;;;;;;8.13;2.38;;;;;;;;;;6182586;28;20221;-69
2022/05/11 20:02:23;;;;;;;6.38;2.40;;;;;;;;;;6196434;28;20233;-70
2022/05/11 20:05:44;;;;;;;8.15;3.38;;;;;;;;;;6204372;28;20229;-68
2022/05/11 20:09:05;;;;;;;8.05;2.55;;;;;;;;;;6199529;28;20245;-69
2022/05/11 20:12:26;;;;;;;6.53;3.65;;;;;;;;;;6199721;28;20241;-69
2022/05/11 20:15:46;;;;;;;7.68;3.25;;;;;;;;;;6207216;28;20302;-69
2022/05/11 20:19:08;;;;;;;5.50;2.55;;;;;;;;;;6209601;28;20324;-69
2022/05/11 20:22:28;;;;;;;9.40;2.88;;;;;;;;;;6204284;28;20225;-69
2022/05/11 20:25:49;;;;;;;7.78;3.67;;;;;;;;;;6205674;28;20324;-68
2022/05/11 20:29:10;;;;;;;8.70;3.15;;;;;;;;;;6204519;28;20233;-69
2022/05/11 20:36:10;;;;;;;12.32;3.05;;;;;;;;;;6209118;28;20232;-70
2022/05/11 20:39:30;;;;;;;7.47;3.10;;;;;;;;;;6205009;28;20226;-69
2022/05/11 20:42:51;;;;;;;8.35;3.30;;;;;;;;;;6202295;28;20964;-70